sensor_id;sensor_type;location;lat;lon;timestamp;pressure;altitude;pressure_sealevel;temperature;humidity
73453;BME280;61687;56.232;43.854;2022-07-21T00:01:18;99602.22;;;17.01;73.20
73453;BME280;61687;56.232;43.854;2022-07-21T00:03:44;99594.69;;;17.02;73.19
73453;BME280;61687;56.232;43.854;2022-07-21T00:06:10;99595.03;;;17.04;73.31
73453;BME280;61687;56.232;43.854;2022-07-21T00:08:36;99600.50;;;17.08;73.31
73453;BME280;61687;56.232;43.854;2022-07-21T00:11:02;99602.84;;;17.09;73.37
73453;BME280;61687;56.232;43.854;2022-07-21T00:13:28;99601.63;;;17.10;73.28
73453;BME280;61687;56.232;43.854;2022-07-21T00:15:55;99594.88;;;17.11;73.41
73453;BME280;61687;56.232;43.854;2022-07-21T00:18:21;99597.66;;;17.11;73.36
73453;BME280;61687;56.232;43.854;2022-07-21T00:20:47;99592.13;;;17.11;73.58
73453;BME280;61687;56.232;43.854;2022-07-21T00:23:13;99596.84;;;17.11;73.71
73453;BME280;61687;56.232;43.854;2022-07-21T00:25:40;99603.59;;;17.10;74.10
73453;BME280;61687;56.232;43.854;2022-07-21T00:28:06;99600.50;;;17.08;73.96
73453;BME280;61687;56.232;43.854;2022-07-21T00:30:32;99599.34;;;17.05;74.38
73453;BME280;61687;56.232;43.854;2022-07-21T00:32:59;99596.59;;;17.05;74.59
73453;BME280;61687;56.232;43.854;2022-07-21T00:35:26;99600.56;;;17.04;74.58
73453;BME280;61687;56.232;43.854;2022-07-21T00:37:52;99601.34;;;17.05;74.92
73453;BME280;61687;56.232;43.854;2022-07-21T00:40:18;99600.22;;;17.02;75.01
73453;BME280;61687;56.232;43.854;2022-07-21T00:42:44;99602.22;;;17.01;75.22
73453;BME280;61687;56.232;43.854;2022-07-21T00:45:11;99598.31;;;16.99;75.18
73453;BME280;61687;56.232;43.854;2022-07-21T00:47:38;99604.22;;;16.97;75.57
73453;BME280;61687;56.232;43.854;2022-07-21T00:50:07;99595.94;;;16.97;75.62
73453;BME280;61687;56.232;43.854;2022-07-21T00:52:34;99601.13;;;16.95;75.58
73453;BME280;61687;56.232;43.854;2022-07-21T00:55:00;99602.31;;;16.94;75.54
73453;BME280;61687;56.232;43.854;2022-07-21T00:57:29;99607.09;;;16.94;75.66
73453;BME280;61687;56.232;43.854;2022-07-21T00:59:56;99604.34;;;16.94;75.62
73453;BME280;61687;56.232;43.854;2022-07-21T01:02:22;99609.88;;;16.94;75.66
73453;BME280;61687;56.232;43.854;2022-07-21T01:04:48;99609.06;;;16.93;75.53
73453;BME280;61687;56.232;43.854;2022-07-21T01:07:14;99603.13;;;16.95;75.77
73453;BME280;61687;56.232;43.854;2022-07-21T01:09:41;99606.66;;;16.95;75.67
73453;BME280;61687;56.232;43.854;2022-07-21T01:12:08;99616.50;;;16.96;75.69
73453;BME280;61687;56.232;43.854;2022-07-21T01:14:34;99617.31;;;16.97;75.74
73453;BME280;61687;56.232;43.854;2022-07-21T01:17:02;99616.50;;;16.96;75.80
73453;BME280;61687;56.232;43.854;2022-07-21T01:19:29;99617.31;;;16.97;75.79
73453;BME280;61687;56.232;43.854;2022-07-21T01:21:55;99615.75;;;16.96;75.83
73453;BME280;61687;56.232;43.854;2022-07-21T01:24:21;99624.81;;;16.96;75.82
73453;BME280;61687;56.232;43.854;2022-07-21T01:26:50;99626.81;;;16.96;75.94
73453;BME280;61687;56.232;43.854;2022-07-21T01:29:17;99622.84;;;16.97;76.05
73453;BME280;61687;56.232;43.854;2022-07-21T01:31:44;99623.22;;;16.99;75.89
73453;BME280;61687;56.232;43.854;2022-07-21T01:34:11;99622.81;;;17.00;75.99
73453;BME280;61687;56.232;43.854;2022-07-21T01:36:38;99624.38;;;17.01;75.88
73453;BME280;61687;56.232;43.854;2022-07-21T01:39:05;99624.25;;;17.05;75.88
73453;BME280;61687;56.232;43.854;2022-07-21T01:41:50;99622.22;;;17.09;75.55
73453;BME280;61687;56.232;43.854;2022-07-21T01:44:17;99629.22;;;17.14;75.52
73453;BME280;61687;56.232;43.854;2022-07-21T01:46:46;99628.72;;;17.19;75.55
73453;BME280;61687;56.232;43.854;2022-07-21T01:49:15;99634.16;;;17.23;75.53
73453;BME280;61687;56.232;43.854;2022-07-21T01:51:41;99637.63;;;17.27;75.40
73453;BME280;61687;56.232;43.854;2022-07-21T01:54:08;99634.84;;;17.27;75.45
73453;BME280;61687;56.232;43.854;2022-07-21T01:56:36;99627.75;;;17.26;75.28
73453;BME280;61687;56.232;43.854;2022-07-21T01:59:03;99627.00;;;17.25;75.08
73453;BME280;61687;56.232;43.854;2022-07-21T02:01:30;99629.06;;;17.21;75.30
73453;BME280;61687;56.232;43.854;2022-07-21T02:03:58;99629.16;;;17.17;75.39
73453;BME280;61687;56.232;43.854;2022-07-21T02:06:25;99627.25;;;17.14;75.42
73453;BME280;61687;56.232;43.854;2022-07-21T02:08:51;99626.16;;;17.08;75.43
73453;BME280;61687;56.232;43.854;2022-07-21T02:11:18;99633.00;;;17.04;75.74
73453;BME280;61687;56.232;43.854;2022-07-21T02:13:45;99632.69;;;16.98;75.69
73453;BME280;61687;56.232;43.854;2022-07-21T02:16:12;99641.44;;;16.96;75.72
73453;BME280;61687;56.232;43.854;2022-07-21T02:18:40;99637.09;;;16.95;75.81
73453;BME280;61687;56.232;43.854;2022-07-21T02:21:06;99643.16;;;16.90;75.94
73453;BME280;61687;56.232;43.854;2022-07-21T02:23:33;99643.22;;;16.86;76.17
73453;BME280;61687;56.232;43.854;2022-07-21T02:26:00;99646.34;;;16.88;76.33
73453;BME280;61687;56.232;43.854;2022-07-21T02:28:26;99646.72;;;16.91;76.15
73453;BME280;61687;56.232;43.854;2022-07-21T02:30:53;99640.31;;;16.94;76.00
73453;BME280;61687;56.232;43.854;2022-07-21T02:33:20;99649.69;;;17.00;75.79
73453;BME280;61687;56.232;43.854;2022-07-21T02:35:47;99647.97;;;17.06;75.78
73453;BME280;61687;56.232;43.854;2022-07-21T02:38:13;99647.38;;;17.15;75.52
73453;BME280;61687;56.232;43.854;2022-07-21T02:40:39;99654.00;;;17.21;75.31
73453;BME280;61687;56.232;43.854;2022-07-21T02:43:05;99653.03;;;17.28;75.40
73453;BME280;61687;56.232;43.854;2022-07-21T02:45:32;99656.34;;;17.39;75.08
73453;BME280;61687;56.232;43.854;2022-07-21T02:48:07;99654.91;;;17.51;74.84
73453;BME280;61687;56.232;43.854;2022-07-21T02:50:35;99661.41;;;17.61;74.18
73453;BME280;61687;56.232;43.854;2022-07-21T02:53:04;99660.00;;;17.69;73.77
73453;BME280;61687;56.232;43.854;2022-07-21T02:55:30;99660.00;;;17.69;73.71
73453;BME280;61687;56.232;43.854;2022-07-21T03:00:36;99661.75;;;17.63;74.08
73453;BME280;61687;56.232;43.854;2022-07-21T03:03:02;99665.72;;;17.62;74.23
73453;BME280;61687;56.232;43.854;2022-07-21T03:05:30;99665.66;;;17.66;74.09
73453;BME280;61687;56.232;43.854;2022-07-21T03:07:56;99668.66;;;17.71;73.85
73453;BME280;61687;56.232;43.854;2022-07-21T03:10:22;99671.44;;;17.71;73.64
73453;BME280;61687;56.232;43.854;2022-07-21T03:12:48;99670.59;;;17.74;73.69
73453;BME280;61687;56.232;43.854;2022-07-21T03:15:14;99675.25;;;17.78;73.68
73453;BME280;61687;56.232;43.854;2022-07-21T03:17:40;99671.53;;;17.84;73.60
73453;BME280;61687;56.232;43.854;2022-07-21T03:20:06;99671.00;;;17.90;73.56
73453;BME280;61687;56.232;43.854;2022-07-21T03:22:32;99671.69;;;17.94;73.51
73453;BME280;61687;56.232;43.854;2022-07-21T03:24:58;99670.41;;;17.98;73.51
73453;BME280;61687;56.232;43.854;2022-07-21T03:27:24;99674.66;;;18.03;73.68
73453;BME280;61687;56.232;43.854;2022-07-21T03:29:50;99680.91;;;18.07;73.62
73453;BME280;61687;56.232;43.854;2022-07-21T03:32:16;99680.38;;;18.12;73.24
73453;BME280;61687;56.232;43.854;2022-07-21T03:34:42;99688.97;;;18.18;72.79
73453;BME280;61687;56.232;43.854;2022-07-21T03:37:08;99694.66;;;18.27;72.77
73453;BME280;61687;56.232;43.854;2022-07-21T03:39:34;99691.69;;;18.35;72.42
73453;BME280;61687;56.232;43.854;2022-07-21T03:42:00;99698.06;;;18.48;72.20
73453;BME280;61687;56.232;43.854;2022-07-21T03:44:26;99689.72;;;18.65;71.82
73453;BME280;61687;56.232;43.854;2022-07-21T03:46:52;99695.31;;;18.78;71.33
73453;BME280;61687;56.232;43.854;2022-07-21T03:49:18;99683.97;;;18.85;70.93
73453;BME280;61687;56.232;43.854;2022-07-21T03:51:44;99684.19;;;18.78;70.89
73453;BME280;61687;56.232;43.854;2022-07-21T03:54:10;99692.09;;;18.79;70.90
73453;BME280;61687;56.232;43.854;2022-07-21T03:56:36;99687.22;;;18.83;71.00
73453;BME280;61687;56.232;43.854;2022-07-21T03:59:02;99698.00;;;18.81;71.02
73453;BME280;61687;56.232;43.854;2022-07-21T04:01:28;99701.53;;;18.82;70.21
73453;BME280;61687;56.232;43.854;2022-07-21T04:03:54;99696.56;;;18.90;69.86
73453;BME280;61687;56.232;43.854;2022-07-21T04:06:20;99700.06;;;19.07;69.15
73453;BME280;61687;56.232;43.854;2022-07-21T04:08:46;99694.97;;;19.18;68.78
73453;BME280;61687;56.232;43.854;2022-07-21T04:11:11;99702.84;;;19.20;68.83
73453;BME280;61687;56.232;43.854;2022-07-21T04:13:38;99705.28;;;19.17;68.84
73453;BME280;61687;56.232;43.854;2022-07-21T04:16:04;99698.53;;;19.19;68.59
73453;BME280;61687;56.232;43.854;2022-07-21T04:18:30;99707.06;;;19.11;68.83
73453;BME280;61687;56.232;43.854;2022-07-21T04:20:56;99711.09;;;18.94;69.29
73453;BME280;61687;56.232;43.854;2022-07-21T04:23:22;99709.59;;;18.76;69.63
73453;BME280;61687;56.232;43.854;2022-07-21T04:25:48;99717.56;;;18.61;69.79
73453;BME280;61687;56.232;43.854;2022-07-21T04:28:14;99726.16;;;18.50;70.14
73453;BME280;61687;56.232;43.854;2022-07-21T04:30:40;99719.41;;;18.35;70.51
73453;BME280;61687;56.232;43.854;2022-07-21T04:33:06;99722.84;;;18.26;71.00
73453;BME280;61687;56.232;43.854;2022-07-21T04:35:32;99732.88;;;18.20;71.24
73453;BME280;61687;56.232;43.854;2022-07-21T04:37:58;99721.09;;;18.15;71.47
73453;BME280;61687;56.232;43.854;2022-07-21T04:40:24;99724.22;;;18.17;71.45
73453;BME280;61687;56.232;43.854;2022-07-21T04:42:50;99725.34;;;18.20;71.42
73453;BME280;61687;56.232;43.854;2022-07-21T04:45:16;99727.66;;;18.22;71.64
73453;BME280;61687;56.232;43.854;2022-07-21T04:47:47;99732.34;;;18.25;71.54
73453;BME280;61687;56.232;43.854;2022-07-21T04:50:14;99746.13;;;18.28;71.38
73453;BME280;61687;56.232;43.854;2022-07-21T04:52:40;99737.72;;;18.32;71.44
73453;BME280;61687;56.232;43.854;2022-07-21T04:55:07;99742.75;;;18.37;71.71
73453;BME280;61687;56.232;43.854;2022-07-21T04:57:40;99735.97;;;18.38;71.90
73453;BME280;61687;56.232;43.854;2022-07-21T05:00:08;99741.00;;;18.43;71.94
73453;BME280;61687;56.232;43.854;2022-07-21T05:02:34;99741.72;;;18.48;71.91
73453;BME280;61687;56.232;43.854;2022-07-21T05:05:00;99749.91;;;18.51;72.48
73453;BME280;61687;56.232;43.854;2022-07-21T05:07:28;99740.72;;;18.54;72.13
73453;BME280;61687;56.232;43.854;2022-07-21T05:09:54;99740.28;;;18.56;72.26
73453;BME280;61687;56.232;43.854;2022-07-21T05:12:20;99745.22;;;18.65;72.19
73453;BME280;61687;56.232;43.854;2022-07-21T05:14:46;99738.63;;;18.88;70.96
73453;BME280;61687;56.232;43.854;2022-07-21T05:17:12;99731.31;;;19.24;69.89
73453;BME280;61687;56.232;43.854;2022-07-21T05:19:38;99733.91;;;19.57;69.24
73453;BME280;61687;56.232;43.854;2022-07-21T05:22:04;99737.25;;;19.78;68.79
73453;BME280;61687;56.232;43.854;2022-07-21T05:24:29;99738.13;;;20.00;67.36
73453;BME280;61687;56.232;43.854;2022-07-21T05:26:55;99732.56;;;20.13;65.63
73453;BME280;61687;56.232;43.854;2022-07-21T05:29:21;99735.47;;;20.10;65.80
73453;BME280;61687;56.232;43.854;2022-07-21T05:31:48;99732.16;;;20.02;65.51
73453;BME280;61687;56.232;43.854;2022-07-21T05:34:14;99735.59;;;19.93;64.87
73453;BME280;61687;56.232;43.854;2022-07-21T05:36:40;99742.91;;;19.87;64.15
73453;BME280;61687;56.232;43.854;2022-07-21T05:39:06;99736.69;;;19.83;64.67
73453;BME280;61687;56.232;43.854;2022-07-21T05:41:32;99742.22;;;19.83;65.31
73453;BME280;61687;56.232;43.854;2022-07-21T05:43:57;99738.91;;;19.88;64.26
73453;BME280;61687;56.232;43.854;2022-07-21T05:46:23;99746.59;;;20.10;64.06
73453;BME280;61687;56.232;43.854;2022-07-21T05:48:49;99737.44;;;20.22;65.21
73453;BME280;61687;56.232;43.854;2022-07-21T05:51:15;99749.53;;;20.41;64.99
73453;BME280;61687;56.232;43.854;2022-07-21T05:53:41;99750.25;;;20.55;64.11
73453;BME280;61687;56.232;43.854;2022-07-21T05:56:07;99754.22;;;20.67;63.43
73453;BME280;61687;56.232;43.854;2022-07-21T05:58:33;99758.56;;;20.68;62.35
73453;BME280;61687;56.232;43.854;2022-07-21T06:00:59;99755.91;;;20.64;61.82
73453;BME280;61687;56.232;43.854;2022-07-21T06:03:35;99763.81;;;20.66;62.30
73453;BME280;61687;56.232;43.854;2022-07-21T06:06:02;99750.19;;;20.68;61.64
73453;BME280;61687;56.232;43.854;2022-07-21T06:08:28;99749.50;;;20.77;62.22
73453;BME280;61687;56.232;43.854;2022-07-21T06:10:54;99757.53;;;20.74;62.08
73453;BME280;61687;56.232;43.854;2022-07-21T06:13:20;99751.31;;;20.70;62.58
73453;BME280;61687;56.232;43.854;2022-07-21T06:15:46;99753.34;;;20.70;62.91
73453;BME280;61687;56.232;43.854;2022-07-21T06:18:11;99759.03;;;20.66;62.63
73453;BME280;61687;56.232;43.854;2022-07-21T06:20:37;99747.25;;;20.62;62.83
73453;BME280;61687;56.232;43.854;2022-07-21T06:23:04;99750.78;;;20.63;62.68
73453;BME280;61687;56.232;43.854;2022-07-21T06:25:30;99765.63;;;20.59;62.24
73453;BME280;61687;56.232;43.854;2022-07-21T06:27:56;99758.50;;;20.58;62.12
73453;BME280;61687;56.232;43.854;2022-07-21T06:30:22;99755.72;;;20.58;62.39
73453;BME280;61687;56.232;43.854;2022-07-21T06:32:47;99762.50;;;20.57;60.94
73453;BME280;61687;56.232;43.854;2022-07-21T06:35:13;99764.63;;;20.53;60.96
73453;BME280;61687;56.232;43.854;2022-07-21T06:37:44;99763.84;;;20.53;61.30
73453;BME280;61687;56.232;43.854;2022-07-21T06:40:11;99767.31;;;20.44;61.01
73453;BME280;61687;56.232;43.854;2022-07-21T06:42:37;99768.00;;;20.48;60.46
73453;BME280;61687;56.232;43.854;2022-07-21T06:45:03;99768.13;;;20.67;60.09
73453;BME280;61687;56.232;43.854;2022-07-21T06:47:30;99771.31;;;20.91;60.82
73453;BME280;61687;56.232;43.854;2022-07-21T06:49:56;99771.56;;;21.06;60.60
73453;BME280;61687;56.232;43.854;2022-07-21T06:52:28;99775.84;;;21.20;60.64
73453;BME280;61687;56.232;43.854;2022-07-21T06:54:54;99772.16;;;21.23;60.68
73453;BME280;61687;56.232;43.854;2022-07-21T06:57:20;99774.69;;;21.30;60.66
73453;BME280;61687;56.232;43.854;2022-07-21T06:59:46;99779.06;;;21.41;60.10
73453;BME280;61687;56.232;43.854;2022-07-21T07:02:12;99788.44;;;21.56;58.99
73453;BME280;61687;56.232;43.854;2022-07-21T07:04:38;99788.69;;;21.71;58.57
73453;BME280;61687;56.232;43.854;2022-07-21T07:07:04;99776.53;;;21.87;58.00
73453;BME280;61687;56.232;43.854;2022-07-21T07:09:30;99782.00;;;22.10;57.37
73453;BME280;61687;56.232;43.854;2022-07-21T07:11:56;99781.69;;;22.08;57.62
73453;BME280;61687;56.232;43.854;2022-07-21T07:14:30;99781.22;;;22.00;57.09
73453;BME280;61687;56.232;43.854;2022-07-21T07:16:56;99783.19;;;21.90;57.09
73453;BME280;61687;56.232;43.854;2022-07-21T07:19:22;99785.31;;;21.77;58.27
73453;BME280;61687;56.232;43.854;2022-07-21T07:21:48;99786.75;;;21.59;57.15
73453;BME280;61687;56.232;43.854;2022-07-21T07:24:14;99788.25;;;21.51;57.70
73453;BME280;61687;56.232;43.854;2022-07-21T07:26:40;99793.31;;;21.65;57.75
73453;BME280;61687;56.232;43.854;2022-07-21T07:29:06;99794.00;;;21.79;56.73
73453;BME280;61687;56.232;43.854;2022-07-21T07:31:32;99786.28;;;21.83;56.65
73453;BME280;61687;56.232;43.854;2022-07-21T07:33:58;99790.13;;;21.85;57.20
73453;BME280;61687;56.232;43.854;2022-07-21T07:36:25;99792.19;;;21.94;57.62
73453;BME280;61687;56.232;43.854;2022-07-21T07:38:53;99790.38;;;22.10;57.59
73453;BME280;61687;56.232;43.854;2022-07-21T07:41:20;99795.56;;;22.30;56.18
73453;BME280;61687;56.232;43.854;2022-07-21T07:43:46;99806.59;;;22.43;55.74
73453;BME280;61687;56.232;43.854;2022-07-21T07:46:12;99804.75;;;22.40;55.98
73453;BME280;61687;56.232;43.854;2022-07-21T07:48:39;99809.66;;;22.36;56.51
73453;BME280;61687;56.232;43.854;2022-07-21T07:51:10;99812.94;;;22.34;56.86
73453;BME280;61687;56.232;43.854;2022-07-21T07:53:37;99816.19;;;22.33;56.69
73453;BME280;61687;56.232;43.854;2022-07-21T07:56:03;99819.28;;;22.35;56.30
73453;BME280;61687;56.232;43.854;2022-07-21T07:58:30;99825.19;;;22.37;56.43
73453;BME280;61687;56.232;43.854;2022-07-21T08:00:56;99825.22;;;22.46;56.10
73453;BME280;61687;56.232;43.854;2022-07-21T08:03:22;99822.78;;;22.57;56.40
73453;BME280;61687;56.232;43.854;2022-07-21T08:05:48;99824.34;;;22.68;56.34
73453;BME280;61687;56.232;43.854;2022-07-21T08:08:15;99828.25;;;22.80;56.05
73453;BME280;61687;56.232;43.854;2022-07-21T08:10:42;99823.75;;;22.92;56.66
73453;BME280;61687;56.232;43.854;2022-07-21T08:13:11;99826.22;;;22.99;56.72
73453;BME280;61687;56.232;43.854;2022-07-21T08:15:37;99832.28;;;22.97;56.19
73453;BME280;61687;56.232;43.854;2022-07-21T08:18:04;99837.72;;;22.92;56.74
73453;BME280;61687;56.232;43.854;2022-07-21T08:20:30;99840.34;;;22.86;56.34
73453;BME280;61687;56.232;43.854;2022-07-21T08:22:56;99840.19;;;22.90;56.71
73453;BME280;61687;56.232;43.854;2022-07-21T08:25:22;99842.38;;;23.04;57.00
73453;BME280;61687;56.232;43.854;2022-07-21T08:27:47;99858.03;;;23.20;56.74
73453;BME280;61687;56.232;43.854;2022-07-21T08:30:13;99856.31;;;23.23;55.61
73453;BME280;61687;56.232;43.854;2022-07-21T08:32:39;99859.44;;;23.25;56.17
73453;BME280;61687;56.232;43.854;2022-07-21T08:35:06;99856.50;;;23.19;55.62
73453;BME280;61687;56.232;43.854;2022-07-21T08:37:35;99857.28;;;23.10;56.50
73453;BME280;61687;56.232;43.854;2022-07-21T08:40:07;99863.00;;;23.07;56.69
73453;BME280;61687;56.232;43.854;2022-07-21T08:42:36;99866.41;;;23.11;56.13
73453;BME280;61687;56.232;43.854;2022-07-21T08:45:03;99864.56;;;23.17;55.49
73453;BME280;61687;56.232;43.854;2022-07-21T08:47:30;99862.84;;;23.20;55.31
73453;BME280;61687;56.232;43.854;2022-07-21T08:49:57;99870.31;;;23.23;56.29
73453;BME280;61687;56.232;43.854;2022-07-21T08:52:23;99873.09;;;23.13;56.67
73453;BME280;61687;56.232;43.854;2022-07-21T08:54:49;99877.31;;;22.99;56.73
73453;BME280;61687;56.232;43.854;2022-07-21T08:57:16;99884.28;;;22.85;58.21
73453;BME280;61687;56.232;43.854;2022-07-21T08:59:42;99885.19;;;22.73;59.15
73453;BME280;61687;56.232;43.854;2022-07-21T09:02:30;99882.50;;;22.60;60.33
73453;BME280;61687;56.232;43.854;2022-07-21T09:04:57;99886.53;;;22.50;61.32
73453;BME280;61687;56.232;43.854;2022-07-21T09:07:23;99888.03;;;22.41;62.28
73453;BME280;61687;56.232;43.854;2022-07-21T09:10:01;99888.44;;;22.30;62.92
73453;BME280;61687;56.232;43.854;2022-07-21T09:12:28;99889.06;;;22.25;63.31
73453;BME280;61687;56.232;43.854;2022-07-21T09:15:14;99903.31;;;22.27;63.59
73453;BME280;61687;56.232;43.854;2022-07-21T09:17:41;99901.78;;;22.26;62.59
73453;BME280;61687;56.232;43.854;2022-07-21T09:20:27;99892.47;;;22.29;62.34
73453;BME280;61687;56.232;43.854;2022-07-21T09:25:39;99892.81;;;23.00;61.15
73453;BME280;61687;56.232;43.854;2022-07-21T09:28:22;99892.06;;;23.37;59.78
73453;BME280;61687;56.232;43.854;2022-07-21T09:31:00;99895.31;;;23.64;58.63
73453;BME280;61687;56.232;43.854;2022-07-21T09:33:31;99889.09;;;23.60;58.57
73453;BME280;61687;56.232;43.854;2022-07-21T09:36:09;99893.16;;;23.40;58.83
73453;BME280;61687;56.232;43.854;2022-07-21T09:38:45;99891.28;;;23.09;59.78
73453;BME280;61687;56.232;43.854;2022-07-21T09:41:18;99895.91;;;22.84;60.87
73453;BME280;61687;56.232;43.854;2022-07-21T09:43:47;99894.31;;;22.64;61.04
73453;BME280;61687;56.232;43.854;2022-07-21T09:46:17;99892.00;;;22.63;61.38
73453;BME280;61687;56.232;43.854;2022-07-21T09:48:46;99894.97;;;22.78;60.98
73453;BME280;61687;56.232;43.854;2022-07-21T09:53:50;99883.38;;;23.07;59.98
73453;BME280;61687;56.232;43.854;2022-07-21T09:56:17;99886.16;;;23.44;59.73
73453;BME280;61687;56.232;43.854;2022-07-21T09:58:48;99888.88;;;23.82;58.45
73453;BME280;61687;56.232;43.854;2022-07-21T10:01:15;99878.56;;;24.16;58.23
73453;BME280;61687;56.232;43.854;2022-07-21T10:03:43;99876.44;;;24.35;57.48
73453;BME280;61687;56.232;43.854;2022-07-21T10:06:11;99881.38;;;24.40;57.13
73453;BME280;61687;56.232;43.854;2022-07-21T10:08:38;99877.06;;;24.64;56.81
73453;BME280;61687;56.232;43.854;2022-07-21T10:11:05;99877.63;;;24.77;57.11
73453;BME280;61687;56.232;43.854;2022-07-21T10:13:31;99872.72;;;24.87;56.38
73453;BME280;61687;56.232;43.854;2022-07-21T10:15:58;99869.19;;;25.01;56.14
73453;BME280;61687;56.232;43.854;2022-07-21T10:18:34;99873.03;;;25.28;54.81
73453;BME280;61687;56.232;43.854;2022-07-21T10:21:34;99886.44;;;25.79;52.17
73453;BME280;61687;56.232;43.854;2022-07-21T10:24:02;99887.00;;;26.69;51.05
73453;BME280;61687;56.232;43.854;2022-07-21T10:26:30;99887.75;;;26.85;50.36
73453;BME280;61687;56.232;43.854;2022-07-21T10:28:56;99876.28;;;28.21;48.57
73453;BME280;61687;56.232;43.854;2022-07-21T10:31:24;99875.09;;;28.33;47.75
73453;BME280;61687;56.232;43.854;2022-07-21T10:33:55;99887.34;;;27.98;48.41
73453;BME280;61687;56.232;43.854;2022-07-21T10:41:48;99882.16;;;29.27;45.56
73453;BME280;61687;56.232;43.854;2022-07-21T10:47:19;99881.03;;;28.96;45.98
73453;BME280;61687;56.232;43.854;2022-07-21T10:49:56;99876.94;;;28.42;47.02
73453;BME280;61687;56.232;43.854;2022-07-21T10:55:22;99870.69;;;27.62;48.59
73453;BME280;61687;56.232;43.854;2022-07-21T11:00:44;99868.09;;;31.06;42.49
73453;BME280;61687;56.232;43.854;2022-07-21T11:03:16;99868.91;;;30.02;43.70
73453;BME280;61687;56.232;43.854;2022-07-21T11:08:52;99872.22;;;28.77;45.73
73453;BME280;61687;56.232;43.854;2022-07-21T11:11:24;99867.94;;;28.81;45.58
73453;BME280;61687;56.232;43.854;2022-07-21T11:14:08;99866.31;;;28.25;46.57
73453;BME280;61687;56.232;43.854;2022-07-21T11:16:57;99867.91;;;27.41;48.20
73453;BME280;61687;56.232;43.854;2022-07-21T11:19:39;99882.97;;;26.91;48.89
73453;BME280;61687;56.232;43.854;2022-07-21T11:22:22;99870.22;;;26.19;49.85
73453;BME280;61687;56.232;43.854;2022-07-21T11:24:50;99881.31;;;25.62;50.83
73453;BME280;61687;56.232;43.854;2022-07-21T11:27:18;99881.00;;;25.06;52.60
73453;BME280;61687;56.232;43.854;2022-07-21T11:29:46;99897.03;;;24.56;53.29
73453;BME280;61687;56.232;43.854;2022-07-21T11:32:13;99887.56;;;24.20;54.44
73453;BME280;61687;56.232;43.854;2022-07-21T11:34:55;99890.72;;;23.94;54.92
73453;BME280;61687;56.232;43.854;2022-07-21T11:37:35;99893.13;;;23.68;55.34
73453;BME280;61687;56.232;43.854;2022-07-21T11:40:15;99889.59;;;23.49;55.63
73453;BME280;61687;56.232;43.854;2022-07-21T11:42:43;99902.47;;;23.27;56.17
73453;BME280;61687;56.232;43.854;2022-07-21T11:45:11;99908.81;;;23.09;56.69
73453;BME280;61687;56.232;43.854;2022-07-21T11:47:37;99916.56;;;22.86;58.47
73453;BME280;61687;56.232;43.854;2022-07-21T11:50:06;99937.00;;;22.65;60.61
73453;BME280;61687;56.232;43.854;2022-07-21T11:52:35;99922.75;;;22.40;62.53
73453;BME280;61687;56.232;43.854;2022-07-21T11:55:04;99928.88;;;22.16;63.62
73453;BME280;61687;56.232;43.854;2022-07-21T11:57:31;99921.94;;;21.99;64.59
73453;BME280;61687;56.232;43.854;2022-07-21T11:59:58;99921.13;;;21.89;65.81
73453;BME280;61687;56.232;43.854;2022-07-21T12:02:28;99921.13;;;21.89;65.99
73453;BME280;61687;56.232;43.854;2022-07-21T12:05:01;99916.88;;;22.07;66.69
73453;BME280;61687;56.232;43.854;2022-07-21T12:07:37;99923.69;;;22.37;66.48
73453;BME280;61687;56.232;43.854;2022-07-21T12:10:10;99926.41;;;22.59;66.26
73453;BME280;61687;56.232;43.854;2022-07-21T12:12:41;99928.13;;;22.66;66.27
73453;BME280;61687;56.232;43.854;2022-07-21T12:17:43;99931.53;;;22.61;66.13
73453;BME280;61687;56.232;43.854;2022-07-21T12:20:10;99940.09;;;22.67;66.02
73453;BME280;61687;56.232;43.854;2022-07-21T12:22:38;99927.44;;;23.22;64.94
73453;BME280;61687;56.232;43.854;2022-07-21T12:25:06;99927.28;;;23.91;63.43
73453;BME280;61687;56.232;43.854;2022-07-21T12:27:37;99924.75;;;24.54;61.52
73453;BME280;61687;56.232;43.854;2022-07-21T12:30:04;99927.66;;;24.60;61.15
73453;BME280;61687;56.232;43.854;2022-07-21T12:32:45;99940.63;;;24.48;61.19
73453;BME280;61687;56.232;43.854;2022-07-21T12:35:24;99932.06;;;24.52;60.96
73453;BME280;61687;56.232;43.854;2022-07-21T12:37:58;99941.66;;;24.60;60.84
73453;BME280;61687;56.232;43.854;2022-07-21T12:40:25;99936.84;;;24.61;60.58
73453;BME280;61687;56.232;43.854;2022-07-21T12:43:02;99941.41;;;24.49;61.63
73453;BME280;61687;56.232;43.854;2022-07-21T12:45:28;99944.16;;;24.24;61.89
73453;BME280;61687;56.232;43.854;2022-07-21T12:48:08;99942.50;;;23.90;62.15
73453;BME280;61687;56.232;43.854;2022-07-21T12:50:35;99946.00;;;23.56;63.05
73453;BME280;61687;56.232;43.854;2022-07-21T12:53:11;99950.59;;;23.22;64.12
73453;BME280;61687;56.232;43.854;2022-07-21T12:55:38;99974.00;;;22.97;65.33
73453;BME280;61687;56.232;43.854;2022-07-21T12:58:04;99982.31;;;22.69;65.88
73453;BME280;61687;56.232;43.854;2022-07-21T13:00:31;99980.94;;;22.42;65.62
73453;BME280;61687;56.232;43.854;2022-07-21T13:02:57;99976.81;;;22.24;65.63
73453;BME280;61687;56.232;43.854;2022-07-21T13:05:24;99990.59;;;22.19;65.23
73453;BME280;61687;56.232;43.854;2022-07-21T13:07:51;99983.75;;;22.20;65.03
73453;BME280;61687;56.232;43.854;2022-07-21T13:10:18;99985.19;;;22.24;64.84
73453;BME280;61687;56.232;43.854;2022-07-21T13:12:44;99986.34;;;22.36;65.29
73453;BME280;61687;56.232;43.854;2022-07-21T13:15:10;100000.34;;;22.45;64.58
73453;BME280;61687;56.232;43.854;2022-07-21T13:17:37;99994.66;;;22.58;63.69
73453;BME280;61687;56.232;43.854;2022-07-21T13:20:03;99995.75;;;22.52;63.40
73453;BME280;61687;56.232;43.854;2022-07-21T13:22:29;99991.44;;;22.38;63.19